sensor_id;sensor_type;location;lat;lon;timestamp;P1;durP1;ratioP1;P2;durP2;ratioP2
23628;SDS011;11991;57.150;-2.134;2022-11-06T00:00:46;3.08;;;1.98;;
23628;SDS011;11991;57.150;-2.134;2022-11-06T00:03:13;2.33;;;1.38;;
23628;SDS011;11991;57.150;-2.134;2022-11-06T00:05:41;1.77;;;1.30;;
23628;SDS011;11991;57.150;-2.134;2022-11-06T00:08:28;4.72;;;2.05;;
23628;SDS011;11991;57.150;-2.134;2022-11-06T00:10:57;2.63;;;2.05;;
23628;SDS011;11991;57.150;-2.134;2022-11-06T00:13:25;3.30;;;1.80;;
23628;SDS011;11991;57.150;-2.134;2022-11-06T00:15:52;5.88;;;2.45;;
23628;SDS011;11991;57.150;-2.134;2022-11-06T00:18:20;2.60;;;1.85;;
23628;SDS011;11991;57.150;-2.134;2022-11-06T00:20:50;3.25;;;1.95;;
23628;SDS011;11991;57.150;-2.134;2022-11-06T00:23:18;3.05;;;1.30;;
23628;SDS011;11991;57.150;-2.134;2022-11-06T00:25:45;1.92;;;1.48;;
23628;SDS011;11991;57.150;-2.134;2022-11-06T00:28:12;4.20;;;1.77;;
23628;SDS011;11991;57.150;-2.134;2022-11-06T00:30:40;3.22;;;1.70;;
23628;SDS011;11991;57.150;-2.134;2022-11-06T00:33:08;2.35;;;1.30;;
23628;SDS011;11991;57.150;-2.134;2022-11-06T00:35:36;3.40;;;2.03;;
23628;SDS011;11991;57.150;-2.134;2022-11-06T00:38:04;2.58;;;1.90;;
23628;SDS011;11991;57.150;-2.134;2022-11-06T00:40:32;4.20;;;2.13;;
23628;SDS011;11991;57.150;-2.134;2022-11-06T00:43:24;2.58;;;2.08;;
23628;SDS011;11991;57.150;-2.134;2022-11-06T00:45:52;4.10;;;2.78;;
23628;SDS011;11991;57.150;-2.134;2022-11-06T00:48:19;6.07;;;3.63;;
23628;SDS011;11991;57.150;-2.134;2022-11-06T00:50:47;3.65;;;2.47;;
23628;SDS011;11991;57.150;-2.134;2022-11-06T00:53:14;5.90;;;3.45;;
23628;SDS011;11991;57.150;-2.134;2022-11-06T00:55:41;5.68;;;4.32;;
23628;SDS011;11991;57.150;-2.134;2022-11-06T00:58:08;5.95;;;4.30;;
23628;SDS011;11991;57.150;-2.134;2022-11-06T01:00:36;3.65;;;3.17;;
23628;SDS011;11991;57.150;-2.134;2022-11-06T01:03:03;4.88;;;2.70;;
23628;SDS011;11991;57.150;-2.134;2022-11-06T01:05:34;3.22;;;2.30;;
23628;SDS011;11991;57.150;-2.134;2022-11-06T01:08:01;5.35;;;2.20;;
23628;SDS011;11991;57.150;-2.134;2022-11-06T01:10:28;2.58;;;1.90;;
23628;SDS011;11991;57.150;-2.134;2022-11-06T01:12:56;5.15;;;2.08;;
23628;SDS011;11991;57.150;-2.134;2022-11-06T01:15:24;3.22;;;1.30;;
23628;SDS011;11991;57.150;-2.134;2022-11-06T01:17:51;4.10;;;1.70;;
23628;SDS011;11991;57.150;-2.134;2022-11-06T01:20:18;2.40;;;1.27;;
23628;SDS011;11991;57.150;-2.134;2022-11-06T01:22:46;3.75;;;1.38;;
23628;SDS011;11991;57.150;-2.134;2022-11-06T01:25:14;1.85;;;1.30;;
23628;SDS011;11991;57.150;-2.134;2022-11-06T01:27:42;2.20;;;1.13;;
23628;SDS011;11991;57.150;-2.134;2022-11-06T01:30:09;1.85;;;1.00;;
23628;SDS011;11991;57.150;-2.134;2022-11-06T01:32:37;1.98;;;1.50;;
23628;SDS011;11991;57.150;-2.134;2022-11-06T01:35:04;3.65;;;1.52;;
23628;SDS011;11991;57.150;-2.134;2022-11-06T01:37:31;4.20;;;2.33;;
23628;SDS011;11991;57.150;-2.134;2022-11-06T01:39:59;3.15;;;1.52;;
23628;SDS011;11991;57.150;-2.134;2022-11-06T01:42:27;2.72;;;1.42;;
23628;SDS011;11991;57.150;-2.134;2022-11-06T01:47:32;2.90;;;1.20;;
23628;SDS011;11991;57.150;-2.134;2022-11-06T01:50:00;3.25;;;1.30;;
23628;SDS011;11991;57.150;-2.134;2022-11-06T01:52:35;2.72;;;1.30;;
23628;SDS011;11991;57.150;-2.134;2022-11-06T01:55:09;3.55;;;1.70;;
23628;SDS011;11991;57.150;-2.134;2022-11-06T01:57:42;2.72;;;1.40;;
23628;SDS011;11991;57.150;-2.134;2022-11-06T02:00:12;2.65;;;1.02;;
23628;SDS011;11991;57.150;-2.134;2022-11-06T02:02:39;1.27;;;1.00;;
23628;SDS011;11991;57.150;-2.134;2022-11-06T02:05:07;3.08;;;1.77;;
23628;SDS011;11991;57.150;-2.134;2022-11-06T02:07:35;2.33;;;0.90;;
23628;SDS011;11991;57.150;-2.134;2022-11-06T02:10:04;1.50;;;0.80;;
23628;SDS011;11991;57.150;-2.134;2022-11-06T02:12:40;1.90;;;0.88;;
23628;SDS011;11991;57.150;-2.134;2022-11-06T02:30:06;2.95;;;1.30;;
23628;SDS011;11991;57.150;-2.134;2022-11-06T02:35:01;4.22;;;1.80;;
23628;SDS011;11991;57.150;-2.134;2022-11-06T02:37:53;2.17;;;1.45;;
23628;SDS011;11991;57.150;-2.134;2022-11-06T02:40:27;1.63;;;1.30;;
23628;SDS011;11991;57.150;-2.134;2022-11-06T02:42:59;3.55;;;1.60;;
23628;SDS011;11991;57.150;-2.134;2022-11-06T02:49:06;1.88;;;1.23;;
23628;SDS011;11991;57.150;-2.134;2022-11-06T02:51:41;2.53;;;1.65;;
23628;SDS011;11991;57.150;-2.134;2022-11-06T02:54:13;3.35;;;1.33;;
23628;SDS011;11991;57.150;-2.134;2022-11-06T02:56:43;1.88;;;1.20;;
23628;SDS011;11991;57.150;-2.134;2022-11-06T03:02:29;2.03;;;1.30;;
23628;SDS011;11991;57.150;-2.134;2022-11-06T03:05:16;2.47;;;1.40;;
23628;SDS011;11991;57.150;-2.134;2022-11-06T03:07:51;1.40;;;1.17;;
23628;SDS011;11991;57.150;-2.134;2022-11-06T03:10:25;2.88;;;1.42;;
23628;SDS011;11991;57.150;-2.134;2022-11-06T03:13:00;1.63;;;1.10;;
23628;SDS011;11991;57.150;-2.134;2022-11-06T03:15:51;2.22;;;1.38;;
23628;SDS011;11991;57.150;-2.134;2022-11-06T03:18:35;1.30;;;0.80;;
23628;SDS011;11991;57.150;-2.134;2022-11-06T03:24:07;3.20;;;1.48;;
23628;SDS011;11991;57.150;-2.134;2022-11-06T03:26:47;3.13;;;1.88;;
23628;SDS011;11991;57.150;-2.134;2022-11-06T03:29:19;3.15;;;1.60;;
23628;SDS011;11991;57.150;-2.134;2022-11-06T03:31:53;1.92;;;0.98;;
23628;SDS011;11991;57.150;-2.134;2022-11-06T03:34:28;1.83;;;1.45;;
23628;SDS011;11991;57.150;-2.134;2022-11-06T03:37:01;3.95;;;1.73;;
23628;SDS011;11991;57.150;-2.134;2022-11-06T03:39:39;2.30;;;1.45;;
23628;SDS011;11991;57.150;-2.134;2022-11-06T03:42:13;3.55;;;1.65;;
23628;SDS011;11991;57.150;-2.134;2022-11-06T03:44:46;5.03;;;1.67;;
23628;SDS011;11991;57.150;-2.134;2022-11-06T03:49:57;1.88;;;1.50;;
23628;SDS011;11991;57.150;-2.134;2022-11-06T03:52:50;3.13;;;1.30;;
23628;SDS011;11991;57.150;-2.134;2022-11-06T03:55:23;2.88;;;1.60;;
23628;SDS011;11991;57.150;-2.134;2022-11-06T03:58:06;2.90;;;2.15;;
23628;SDS011;11991;57.150;-2.134;2022-11-06T04:00:39;4.18;;;2.28;;
23628;SDS011;11991;57.150;-2.134;2022-11-06T04:03:13;5.65;;;2.17;;
23628;SDS011;11991;57.150;-2.134;2022-11-06T04:06:16;3.33;;;1.80;;
23628;SDS011;11991;57.150;-2.134;2022-11-06T04:08:43;3.05;;;1.67;;
23628;SDS011;11991;57.150;-2.134;2022-11-06T04:11:33;3.30;;;1.75;;
23628;SDS011;11991;57.150;-2.134;2022-11-06T04:14:22;2.45;;;1.70;;
23628;SDS011;11991;57.150;-2.134;2022-11-06T04:16:53;4.20;;;1.75;;
23628;SDS011;11991;57.150;-2.134;2022-11-06T04:19:25;5.32;;;1.73;;
23628;SDS011;11991;57.150;-2.134;2022-11-06T04:27:31;2.78;;;1.40;;
23628;SDS011;11991;57.150;-2.134;2022-11-06T04:38:21;6.32;;;2.22;;
23628;SDS011;11991;57.150;-2.134;2022-11-06T04:43:42;6.22;;;2.15;;
23628;SDS011;11991;57.150;-2.134;2022-11-06T04:46:15;4.25;;;2.05;;
23628;SDS011;11991;57.150;-2.134;2022-11-06T04:48:46;6.25;;;2.35;;
23628;SDS011;11991;57.150;-2.134;2022-11-06T04:51:15;2.33;;;1.80;;
23628;SDS011;11991;57.150;-2.134;2022-11-06T04:53:50;5.78;;;1.98;;
23628;SDS011;11991;57.150;-2.134;2022-11-06T04:56:24;4.68;;;2.53;;
23628;SDS011;11991;57.150;-2.134;2022-11-06T04:59:00;6.22;;;1.98;;
23628;SDS011;11991;57.150;-2.134;2022-11-06T05:01:28;4.38;;;2.30;;
23628;SDS011;11991;57.150;-2.134;2022-11-06T05:03:56;2.00;;;1.40;;
23628;SDS011;11991;57.150;-2.134;2022-11-06T05:06:24;2.70;;;1.95;;
23628;SDS011;11991;57.150;-2.134;2022-11-06T05:08:55;4.57;;;2.38;;
23628;SDS011;11991;57.150;-2.134;2022-11-06T05:11:24;4.43;;;1.95;;
23628;SDS011;11991;57.150;-2.134;2022-11-06T05:13:51;2.60;;;1.45;;
23628;SDS011;11991;57.150;-2.134;2022-11-06T05:16:19;2.60;;;1.88;;
23628;SDS011;11991;57.150;-2.134;2022-11-06T05:18:46;4.07;;;1.98;;
23628;SDS011;11991;57.150;-2.134;2022-11-06T05:21:13;5.30;;;2.60;;
23628;SDS011;11991;57.150;-2.134;2022-11-06T05:23:59;4.85;;;1.73;;
23628;SDS011;11991;57.150;-2.134;2022-11-06T05:26:26;10.10;;;3.25;;
23628;SDS011;11991;57.150;-2.134;2022-11-06T05:28:54;3.85;;;2.25;;
23628;SDS011;11991;57.150;-2.134;2022-11-06T05:31:21;6.00;;;2.70;;
23628;SDS011;11991;57.150;-2.134;2022-11-06T05:33:50;7.13;;;2.50;;
23628;SDS011;11991;57.150;-2.134;2022-11-06T05:36:18;6.68;;;2.03;;
23628;SDS011;11991;57.150;-2.134;2022-11-06T05:38:45;10.90;;;3.40;;
23628;SDS011;11991;57.150;-2.134;2022-11-06T05:41:12;3.28;;;1.92;;
23628;SDS011;11991;57.150;-2.134;2022-11-06T05:43:40;5.18;;;2.58;;
23628;SDS011;11991;57.150;-2.134;2022-11-06T05:46:07;6.65;;;3.45;;
23628;SDS011;11991;57.150;-2.134;2022-11-06T05:48:55;5.93;;;2.47;;
23628;SDS011;11991;57.150;-2.134;2022-11-06T05:51:22;7.15;;;3.10;;
23628;SDS011;11991;57.150;-2.134;2022-11-06T05:53:49;5.80;;;2.70;;
23628;SDS011;11991;57.150;-2.134;2022-11-06T05:56:17;7.78;;;3.10;;
23628;SDS011;11991;57.150;-2.134;2022-11-06T05:58:45;4.53;;;1.92;;
23628;SDS011;11991;57.150;-2.134;2022-11-06T06:01:12;6.28;;;2.53;;
23628;SDS011;11991;57.150;-2.134;2022-11-06T06:03:40;3.92;;;2.20;;
23628;SDS011;11991;57.150;-2.134;2022-11-06T06:06:07;5.07;;;2.38;;
23628;SDS011;11991;57.150;-2.134;2022-11-06T06:08:34;6.80;;;3.22;;
23628;SDS011;11991;57.150;-2.134;2022-11-06T06:11:04;5.35;;;2.50;;
23628;SDS011;11991;57.150;-2.134;2022-11-06T06:13:34;6.85;;;3.17;;
23628;SDS011;11991;57.150;-2.134;2022-11-06T06:16:03;4.53;;;2.25;;
23628;SDS011;11991;57.150;-2.134;2022-11-06T06:18:30;3.90;;;1.98;;
23628;SDS011;11991;57.150;-2.134;2022-11-06T06:20:58;4.35;;;2.40;;
23628;SDS011;11991;57.150;-2.134;2022-11-06T06:23:26;3.80;;;2.70;;
23628;SDS011;11991;57.150;-2.134;2022-11-06T06:25:55;4.55;;;2.17;;
23628;SDS011;11991;57.150;-2.134;2022-11-06T06:28:22;3.38;;;1.95;;
23628;SDS011;11991;57.150;-2.134;2022-11-06T06:30:50;3.35;;;1.70;;
23628;SDS011;11991;57.150;-2.134;2022-11-06T06:33:24;5.03;;;2.70;;
23628;SDS011;11991;57.150;-2.134;2022-11-06T06:35:51;3.40;;;2.00;;
23628;SDS011;11991;57.150;-2.134;2022-11-06T06:38:18;3.85;;;2.05;;
23628;SDS011;11991;57.150;-2.134;2022-11-06T06:40:46;3.65;;;2.38;;
23628;SDS011;11991;57.150;-2.134;2022-11-06T06:43:13;8.88;;;3.00;;
23628;SDS011;11991;57.150;-2.134;2022-11-06T06:45:40;4.70;;;2.80;;
23628;SDS011;11991;57.150;-2.134;2022-11-06T06:48:08;2.72;;;2.30;;
23628;SDS011;11991;57.150;-2.134;2022-11-06T06:50:35;5.97;;;2.97;;
23628;SDS011;11991;57.150;-2.134;2022-11-06T06:53:02;4.55;;;1.92;;
23628;SDS011;11991;57.150;-2.134;2022-11-06T06:55:30;6.28;;;2.65;;
23628;SDS011;11991;57.150;-2.134;2022-11-06T06:57:57;5.22;;;2.15;;
23628;SDS011;11991;57.150;-2.134;2022-11-06T07:00:26;3.55;;;1.80;;
23628;SDS011;11991;57.150;-2.134;2022-11-06T07:02:54;4.63;;;2.38;;
23628;SDS011;11991;57.150;-2.134;2022-11-06T07:05:21;4.65;;;2.70;;
23628;SDS011;11991;57.150;-2.134;2022-11-06T07:07:49;4.65;;;2.15;;
23628;SDS011;11991;57.150;-2.134;2022-11-06T07:10:16;4.00;;;2.53;;
23628;SDS011;11991;57.150;-2.134;2022-11-06T07:12:43;5.82;;;2.72;;
23628;SDS011;11991;57.150;-2.134;2022-11-06T07:15:11;3.88;;;2.65;;
23628;SDS011;11991;57.150;-2.134;2022-11-06T07:17:38;4.32;;;1.90;;
23628;SDS011;11991;57.150;-2.134;2022-11-06T07:20:06;4.40;;;2.53;;
23628;SDS011;11991;57.150;-2.134;2022-11-06T07:22:34;3.75;;;2.22;;
23628;SDS011;11991;57.150;-2.134;2022-11-06T07:25:03;4.30;;;2.83;;
23628;SDS011;11991;57.150;-2.134;2022-11-06T07:27:32;4.55;;;2.50;;
23628;SDS011;11991;57.150;-2.134;2022-11-06T07:29:59;6.50;;;3.15;;
23628;SDS011;11991;57.150;-2.134;2022-11-06T07:32:27;4.68;;;2.25;;
23628;SDS011;11991;57.150;-2.134;2022-11-06T07:34:54;3.38;;;2.10;;
23628;SDS011;11991;57.150;-2.134;2022-11-06T07:37:21;2.60;;;1.73;;
23628;SDS011;11991;57.150;-2.134;2022-11-06T07:39:49;4.40;;;2.30;;
23628;SDS011;11991;57.150;-2.134;2022-11-06T07:42:16;4.57;;;2.22;;
23628;SDS011;11991;57.150;-2.134;2022-11-06T07:44:55;6.13;;;1.95;;
23628;SDS011;11991;57.150;-2.134;2022-11-06T07:47:22;4.20;;;1.60;;
23628;SDS011;11991;57.150;-2.134;2022-11-06T07:49:50;2.40;;;1.80;;
23628;SDS011;11991;57.150;-2.134;2022-11-06T07:52:17;4.30;;;2.13;;
23628;SDS011;11991;57.150;-2.134;2022-11-06T07:54:45;7.85;;;2.65;;
23628;SDS011;11991;57.150;-2.134;2022-11-06T07:57:12;7.18;;;2.42;;
23628;SDS011;11991;57.150;-2.134;2022-11-06T07:59:40;2.72;;;1.83;;
23628;SDS011;11991;57.150;-2.134;2022-11-06T08:02:11;7.40;;;2.10;;
23628;SDS011;11991;57.150;-2.134;2022-11-06T08:04:39;4.30;;;2.22;;
23628;SDS011;11991;57.150;-2.134;2022-11-06T08:07:06;3.30;;;1.70;;
23628;SDS011;11991;57.150;-2.134;2022-11-06T08:09:33;2.85;;;1.83;;
23628;SDS011;11991;57.150;-2.134;2022-11-06T08:12:01;5.13;;;2.05;;
23628;SDS011;11991;57.150;-2.134;2022-11-06T08:14:28;4.32;;;1.92;;
23628;SDS011;11991;57.150;-2.134;2022-11-06T08:16:56;6.30;;;2.58;;
23628;SDS011;11991;57.150;-2.134;2022-11-06T08:19:23;5.35;;;2.10;;
23628;SDS011;11991;57.150;-2.134;2022-11-06T08:21:51;6.65;;;2.80;;
23628;SDS011;11991;57.150;-2.134;2022-11-06T08:24:18;4.47;;;2.25;;
23628;SDS011;11991;57.150;-2.134;2022-11-06T08:29:20;4.47;;;2.35;;
23628;SDS011;11991;57.150;-2.134;2022-11-06T08:31:47;6.03;;;2.25;;
23628;SDS011;11991;57.150;-2.134;2022-11-06T08:34:14;5.03;;;2.35;;
23628;SDS011;11991;57.150;-2.134;2022-11-06T08:36:43;5.80;;;2.63;;
23628;SDS011;11991;57.150;-2.134;2022-11-06T08:39:15;7.53;;;2.80;;
23628;SDS011;11991;57.150;-2.134;2022-11-06T08:41:42;4.88;;;2.00;;
23628;SDS011;11991;57.150;-2.134;2022-11-06T08:44:10;4.60;;;2.25;;
23628;SDS011;11991;57.150;-2.134;2022-11-06T08:46:37;4.90;;;1.77;;
23628;SDS011;11991;57.150;-2.134;2022-11-06T08:49:05;6.28;;;2.40;;
23628;SDS011;11991;57.150;-2.134;2022-11-06T08:51:32;7.75;;;2.88;;
23628;SDS011;11991;57.150;-2.134;2022-11-06T08:54:00;7.43;;;2.45;;
23628;SDS011;11991;57.150;-2.134;2022-11-06T08:56:27;4.72;;;1.70;;
23628;SDS011;11991;57.150;-2.134;2022-11-06T08:58:54;4.57;;;2.22;;
23628;SDS011;11991;57.150;-2.134;2022-11-06T09:01:21;6.43;;;2.42;;
23628;SDS011;11991;57.150;-2.134;2022-11-06T09:03:52;5.60;;;1.92;;
23628;SDS011;11991;57.150;-2.134;2022-11-06T09:06:19;5.47;;;2.00;;
23628;SDS011;11991;57.150;-2.134;2022-11-06T09:08:46;3.15;;;1.48;;
23628;SDS011;11991;57.150;-2.134;2022-11-06T09:11:13;6.78;;;2.20;;
23628;SDS011;11991;57.150;-2.134;2022-11-06T09:13:40;4.95;;;2.15;;
23628;SDS011;11991;57.150;-2.134;2022-11-06T09:16:07;7.45;;;2.03;;
23628;SDS011;11991;57.150;-2.134;2022-11-06T09:18:41;7.68;;;2.53;;
23628;SDS011;11991;57.150;-2.134;2022-11-06T09:21:09;5.60;;;2.08;;
23628;SDS011;11991;57.150;-2.134;2022-11-06T09:23:36;5.57;;;2.28;;
23628;SDS011;11991;57.150;-2.134;2022-11-06T09:26:03;3.92;;;2.00;;
23628;SDS011;11991;57.150;-2.134;2022-11-06T09:28:31;4.32;;;1.65;;
23628;SDS011;11991;57.150;-2.134;2022-11-06T09:30:58;6.70;;;2.28;;
23628;SDS011;11991;57.150;-2.134;2022-11-06T09:33:27;6.32;;;3.13;;
23628;SDS011;11991;57.150;-2.134;2022-11-06T09:35:54;5.97;;;2.30;;
23628;SDS011;11991;57.150;-2.134;2022-11-06T09:38:21;3.60;;;1.65;;
23628;SDS011;11991;57.150;-2.134;2022-11-06T09:40:50;5.97;;;2.28;;
23628;SDS011;11991;57.150;-2.134;2022-11-06T09:43:29;11.23;;;2.95;;
23628;SDS011;11991;57.150;-2.134;2022-11-06T09:46:26;7.10;;;2.42;;
23628;SDS011;11991;57.150;-2.134;2022-11-06T09:55:01;5.47;;;1.95;;
23628;SDS011;11991;57.150;-2.134;2022-11-06T09:57:56;5.70;;;1.85;;
23628;SDS011;11991;57.150;-2.134;2022-11-06T10:00:30;5.78;;;2.63;;
23628;SDS011;11991;57.150;-2.134;2022-11-06T10:03:02;5.47;;;2.33;;
23628;SDS011;11991;57.150;-2.134;2022-11-06T10:05:38;7.88;;;3.13;;
23628;SDS011;11991;57.150;-2.134;2022-11-06T10:08:16;5.85;;;2.40;;
23628;SDS011;11991;57.150;-2.134;2022-11-06T10:10:53;6.18;;;2.88;;
23628;SDS011;11991;57.150;-2.134;2022-11-06T10:22:24;6.75;;;2.40;;
23628;SDS011;11991;57.150;-2.134;2022-11-06T10:25:18;7.00;;;3.20;;
23628;SDS011;11991;57.150;-2.134;2022-11-06T10:34:02;8.02;;;3.08;;
23628;SDS011;11991;57.150;-2.134;2022-11-06T10:37:02;6.40;;;2.22;;
23628;SDS011;11991;57.150;-2.134;2022-11-06T10:39:36;8.23;;;2.75;;
23628;SDS011;11991;57.150;-2.134;2022-11-06T10:42:17;8.23;;;2.45;;
23628;SDS011;11991;57.150;-2.134;2022-11-06T10:44:48;3.85;;;1.73;;
23628;SDS011;11991;57.150;-2.134;2022-11-06T10:47:25;4.00;;;1.45;;
23628;SDS011;11991;57.150;-2.134;2022-11-06T10:50:00;12.02;;;3.85;;
23628;SDS011;11991;57.150;-2.134;2022-11-06T10:52:36;11.57;;;4.10;;
23628;SDS011;11991;57.150;-2.134;2022-11-06T10:58:01;12.80;;;5.18;;
23628;SDS011;11991;57.150;-2.134;2022-11-06T11:00:40;10.38;;;4.03;;
23628;SDS011;11991;57.150;-2.134;2022-11-06T11:03:16;10.35;;;3.47;;
23628;SDS011;11991;57.150;-2.134;2022-11-06T11:05:45;8.25;;;3.88;;
23628;SDS011;11991;57.150;-2.134;2022-11-06T11:13:44;8.77;;;3.90;;
23628;SDS011;11991;57.150;-2.134;2022-11-06T11:16:13;10.73;;;4.90;;
23628;SDS011;11991;57.150;-2.134;2022-11-06T11:18:51;11.65;;;5.13;;
23628;SDS011;11991;57.150;-2.134;2022-11-06T11:26:27;14.35;;;5.63;;
23628;SDS011;11991;57.150;-2.134;2022-11-06T11:28:57;11.45;;;5.53;;
23628;SDS011;11991;57.150;-2.134;2022-11-06T11:31:35;11.30;;;5.05;;
23628;SDS011;11991;57.150;-2.134;2022-11-06T11:34:54;10.30;;;5.07;;
23628;SDS011;11991;57.150;-2.134;2022-11-06T11:37:29;7.47;;;4.22;;
23628;SDS011;11991;57.150;-2.134;2022-11-06T11:42:45;14.32;;;5.95;;
23628;SDS011;11991;57.150;-2.134;2022-11-06T11:47:43;7.43;;;4.30;;
23628;SDS011;11991;57.150;-2.134;2022-11-06T11:52:45;8.65;;;4.60;;
23628;SDS011;11991;57.150;-2.134;2022-11-06T11:55:22;12.70;;;5.13;;
23628;SDS011;11991;57.150;-2.134;2022-11-06T11:57:54;12.93;;;5.00;;
23628;SDS011;11991;57.150;-2.134;2022-11-06T12:00:24;12.10;;;6.50;;
23628;SDS011;11991;57.150;-2.134;2022-11-06T12:02:54;16.10;;;8.35;;
23628;SDS011;11991;57.150;-2.134;2022-11-06T12:05:32;11.45;;;5.97;;
23628;SDS011;11991;57.150;-2.134;2022-11-06T12:08:05;7.65;;;4.28;;
23628;SDS011;11991;57.150;-2.134;2022-11-06T12:10:40;10.75;;;5.88;;
23628;SDS011;11991;57.150;-2.134;2022-11-06T12:18:35;21.65;;;9.65;;
23628;SDS011;11991;57.150;-2.134;2022-11-06T12:21:14;13.75;;;7.65;;
23628;SDS011;11991;57.150;-2.134;2022-11-06T12:23:53;17.17;;;7.30;;
23628;SDS011;11991;57.150;-2.134;2022-11-06T12:29:06;8.25;;;4.97;;
23628;SDS011;11991;57.150;-2.134;2022-11-06T12:31:41;7.97;;;4.30;;
23628;SDS011;11991;57.150;-2.134;2022-11-06T12:34:23;13.25;;;6.15;;
23628;SDS011;11991;57.150;-2.134;2022-11-06T12:37:07;17.15;;;7.80;;
23628;SDS011;11991;57.150;-2.134;2022-11-06T12:39:45;17.48;;;8.93;;
23628;SDS011;11991;57.150;-2.134;2022-11-06T12:42:24;11.80;;;6.07;;
23628;SDS011;11991;57.150;-2.134;2022-11-06T12:44:55;12.63;;;6.32;;
23628;SDS011;11991;57.150;-2.134;2022-11-06T12:50:06;13.63;;;7.43;;
23628;SDS011;11991;57.150;-2.134;2022-11-06T12:55:17;14.30;;;6.50;;
23628;SDS011;11991;57.150;-2.134;2022-11-06T12:58:26;7.90;;;5.05;;
23628;SDS011;11991;57.150;-2.134;2022-11-06T13:03:58;12.60;;;6.00;;
23628;SDS011;11991;57.150;-2.134;2022-11-06T13:09:43;12.23;;;6.45;;
23628;SDS011;11991;57.150;-2.134;2022-11-06T13:12:19;13.75;;;6.18;;
23628;SDS011;11991;57.150;-2.134;2022-11-06T13:17:53;12.32;;;5.28;;
23628;SDS011;11991;57.150;-2.134;2022-11-06T13:20:34;8.73;;;4.32;;
23628;SDS011;11991;57.150;-2.134;2022-11-06T13:23:10;14.57;;;7.40;;
23628;SDS011;11991;57.150;-2.134;2022-11-06T13:28:44;11.63;;;4.78;;
23628;SDS011;11991;57.150;-2.134;2022-11-06T13:31:16;17.52;;;7.13;;
23628;SDS011;11991;57.150;-2.134;2022-11-06T13:33:46;12.73;;;6.30;;
23628;SDS011;11991;57.150;-2.134;2022-11-06T13:39:14;15.85;;;7.20;;
23628;SDS011;11991;57.150;-2.134;2022-11-06T13:42:03;7.35;;;4.18;;
23628;SDS011;11991;57.150;-2.134;2022-11-06T13:44:35;10.43;;;5.00;;
23628;SDS011;11991;57.150;-2.134;2022-11-06T13:47:17;8.30;;;4.25;;
23628;SDS011;11991;57.150;-2.134;2022-11-06T13:50:10;10.18;;;5.25;;
23628;SDS011;11991;57.150;-2.134;2022-11-06T13:52:50;9.20;;;5.20;;
23628;SDS011;11991;57.150;-2.134;2022-11-06T13:55:29;6.88;;;3.47;;
23628;SDS011;11991;57.150;-2.134;2022-11-06T14:01:10;6.00;;;3.58;;
23628;SDS011;11991;57.150;-2.134;2022-11-06T14:06:41;7.60;;;3.53;;
23628;SDS011;11991;57.150;-2.134;2022-11-06T14:09:15;7.78;;;4.10;;
23628;SDS011;11991;57.150;-2.134;2022-11-06T14:11:51;4.47;;;2.50;;
23628;SDS011;11991;57.150;-2.134;2022-11-06T14:14:24;13.23;;;5.72;;
23628;SDS011;11991;57.150;-2.134;2022-11-06T14:17:12;9.75;;;5.40;;
23628;SDS011;11991;57.150;-2.134;2022-11-06T14:19:40;5.88;;;3.50;;
23628;SDS011;11991;57.150;-2.134;2022-11-06T14:22:32;5.07;;;2.65;;
23628;SDS011;11991;57.150;-2.134;2022-11-06T14:30:40;4.30;;;2.65;;
23628;SDS011;11991;57.150;-2.134;2022-11-06T14:38:51;6.60;;;2.55;;
23628;SDS011;11991;57.150;-2.134;2022-11-06T14:44:02;3.92;;;2.60;;
23628;SDS011;11991;57.150;-2.134;2022-11-06T14:46:55;4.20;;;2.70;;
23628;SDS011;11991;57.150;-2.134;2022-11-06T14:52:06;6.45;;;2.40;;
23628;SDS011;11991;57.150;-2.134;2022-11-06T14:54:37;5.15;;;2.45;;
23628;SDS011;11991;57.150;-2.134;2022-11-06T14:57:10;3.85;;;2.13;;
23628;SDS011;11991;57.150;-2.134;2022-11-06T14:59:42;4.53;;;2.83;;
23628;SDS011;11991;57.150;-2.134;2022-11-06T15:02:20;3.28;;;1.85;;
23628;SDS011;11991;57.150;-2.134;2022-11-06T15:04:52;5.63;;;2.78;;
23628;SDS011;11991;57.150;-2.134;2022-11-06T15:15:56;6.05;;;2.70;;
23628;SDS011;11991;57.150;-2.134;2022-11-06T15:18:29;6.20;;;2.65;;
23628;SDS011;11991;57.150;-2.134;2022-11-06T15:21:01;9.40;;;3.35;;
23628;SDS011;11991;57.150;-2.134;2022-11-06T15:23:32;3.70;;;2.10;;
23628;SDS011;11991;57.150;-2.134;2022-11-06T15:26:49;6.03;;;3.13;;
23628;SDS011;11991;57.150;-2.134;2022-11-06T15:29:23;5.22;;;2.22;;
23628;SDS011;11991;57.150;-2.134;2022-11-06T15:31:54;5.30;;;2.30;;
23628;SDS011;11991;57.150;-2.134;2022-11-06T15:34:33;4.88;;;2.13;;
23628;SDS011;11991;57.150;-2.134;2022-11-06T15:37:08;5.75;;;2.70;;
23628;SDS011;11991;57.150;-2.134;2022-11-06T15:39:50;3.55;;;2.22;;
23628;SDS011;11991;57.150;-2.134;2022-11-06T15:42:44;3.47;;;2.10;;
23628;SDS011;11991;57.150;-2.134;2022-11-06T15:47:52;3.28;;;2.10;;
23628;SDS011;11991;57.150;-2.134;2022-11-06T15:53:17;2.97;;;1.80;;
23628;SDS011;11991;57.150;-2.134;2022-11-06T16:00:59;6.18;;;3.03;;
23628;SDS011;11991;57.150;-2.134;2022-11-06T16:03:28;4.45;;;2.88;;
23628;SDS011;11991;57.150;-2.134;2022-11-06T16:05:59;3.65;;;1.95;;
23628;SDS011;11991;57.150;-2.134;2022-11-06T16:08:29;3.40;;;2.55;;
23628;SDS011;11991;57.150;-2.134;2022-11-06T16:10:58;5.70;;;2.80;;
23628;SDS011;11991;57.150;-2.134;2022-11-06T16:13:26;3.85;;;2.38;;
23628;SDS011;11991;57.150;-2.134;2022-11-06T16:15:55;4.72;;;2.85;;
23628;SDS011;11991;57.150;-2.134;2022-11-06T16:26:08;4.95;;;3.20;;
23628;SDS011;11991;57.150;-2.134;2022-11-06T16:28:47;5.63;;;3.08;;
23628;SDS011;11991;57.150;-2.134;2022-11-06T16:31:18;3.92;;;2.75;;
23628;SDS011;11991;57.150;-2.134;2022-11-06T16:34:02;6.43;;;4.25;;
23628;SDS011;11991;57.150;-2.134;2022-11-06T16:36:47;7.75;;;3.85;;
23628;SDS011;11991;57.150;-2.134;2022-11-06T16:47:10;7.95;;;4.63;;
23628;SDS011;11991;57.150;-2.134;2022-11-06T16:49:56;5.65;;;3.45;;
23628;SDS011;11991;57.150;-2.134;2022-11-06T16:52:25;4.65;;;2.65;;
23628;SDS011;11991;57.150;-2.134;2022-11-06T16:58:49;5.88;;;3.53;;
23628;SDS011;11991;57.150;-2.134;2022-11-06T17:01:20;5.00;;;3.47;;
23628;SDS011;11991;57.150;-2.134;2022-11-06T17:03:51;7.05;;;3.65;;
23628;SDS011;11991;57.150;-2.134;2022-11-06T17:06:31;4.90;;;3.50;;
23628;SDS011;11991;57.150;-2.134;2022-11-06T17:11:51;6.22;;;3.63;;
23628;SDS011;11991;57.150;-2.134;2022-11-06T17:14:19;3.38;;;2.88;;
23628;SDS011;11991;57.150;-2.134;2022-11-06T17:16:48;5.80;;;2.95;;
23628;SDS011;11991;57.150;-2.134;2022-11-06T17:19:20;4.88;;;2.45;;
23628;SDS011;11991;57.150;-2.134;2022-11-06T17:21:47;5.70;;;2.92;;
23628;SDS011;11991;57.150;-2.134;2022-11-06T17:24:16;4.10;;;2.90;;
23628;SDS011;11991;57.150;-2.134;2022-11-06T17:27:02;7.50;;;3.75;;
23628;SDS011;11991;57.150;-2.134;2022-11-06T17:29:29;3.10;;;2.55;;
23628;SDS011;11991;57.150;-2.134;2022-11-06T17:31:57;6.03;;;3.00;;
23628;SDS011;11991;57.150;-2.134;2022-11-06T17:34:24;4.00;;;2.67;;
23628;SDS011;11991;57.150;-2.134;2022-11-06T17:36:51;4.90;;;2.92;;
23628;SDS011;11991;57.150;-2.134;2022-11-06T17:39:19;4.28;;;3.22;;
23628;SDS011;11991;57.150;-2.134;2022-11-06T17:41:48;4.90;;;3.45;;
23628;SDS011;11991;57.150;-2.134;2022-11-06T17:44:15;8.40;;;4.95;;
23628;SDS011;11991;57.150;-2.134;2022-11-06T17:46:43;5.35;;;3.85;;
23628;SDS011;11991;57.150;-2.134;2022-11-06T17:49:13;4.03;;;3.10;;
23628;SDS011;11991;57.150;-2.134;2022-11-06T17:51:44;6.78;;;4.63;;
23628;SDS011;11991;57.150;-2.134;2022-11-06T17:54:28;6.93;;;4.78;;
23628;SDS011;11991;57.150;-2.134;2022-11-06T17:56:59;7.03;;;4.72;;
23628;SDS011;11991;57.150;-2.134;2022-11-06T17:59:27;7.05;;;3.83;;
23628;SDS011;11991;57.150;-2.134;2022-11-06T18:01:55;4.68;;;3.00;;
23628;SDS011;11991;57.150;-2.134;2022-11-06T18:04:24;5.07;;;3.05;;
23628;SDS011;11991;57.150;-2.134;2022-11-06T18:06:52;4.40;;;3.30;;
23628;SDS011;11991;57.150;-2.134;2022-11-06T18:09:20;4.90;;;3.38;;